createdAt,value
2022-12-25T00:01:46.387Z,69.17
2022-12-25T00:04:18.816Z,66.15
2022-12-25T00:06:51.188Z,77.92
2022-12-25T00:09:23.722Z,71.30
2022-12-25T00:11:56.053Z,70.83
2022-12-25T00:14:28.524Z,70.08
2022-12-25T00:17:01.114Z,68.70
2022-12-25T00:19:34.254Z,73.22
2022-12-25T00:22:06.797Z,75.15
2022-12-25T00:24:39.890Z,68.85
2022-12-25T00:27:12.358Z,75.00
2022-12-25T00:29:45.838Z,79.03
2022-12-25T00:32:18.437Z,69.03
2022-12-25T00:34:50.868Z,76.33
2022-12-25T00:37:23.724Z,74.25
2022-12-25T00:39:56.140Z,72.08
2022-12-25T00:42:29.156Z,69.15
2022-12-25T00:45:01.677Z,70.42
2022-12-25T00:47:34.968Z,65.97
2022-12-25T00:50:08.767Z,65.55
2022-12-25T00:52:41.237Z,63.10
2022-12-25T00:55:14.075Z,55.58
2022-12-25T00:57:46.464Z,55.35
2022-12-25T01:00:19.908Z,51.18
2022-12-25T01:02:52.760Z,49.33
2022-12-25T01:05:25.294Z,50.38
2022-12-25T01:07:58.150Z,49.73
2022-12-25T01:10:31.149Z,48.25
2022-12-25T01:13:03.918Z,46.10
2022-12-25T01:15:38.280Z,46.07
2022-12-25T01:18:12.848Z,42.73
2022-12-25T01:20:44.789Z,40.78
2022-12-25T01:23:17.171Z,44.08
2022-12-25T01:25:50.504Z,46.63
2022-12-25T01:28:23.617Z,45.15
2022-12-25T01:30:55.903Z,43.95
2022-12-25T01:33:29.149Z,41.35
2022-12-25T01:36:01.571Z,40.90
2022-12-25T01:38:34.198Z,42.75
2022-12-25T01:41:06.740Z,41.33
2022-12-25T01:44:01.915Z,45.43
2022-12-25T01:46:35.093Z,41.28
2022-12-25T01:49:23.393Z,43.50
2022-12-25T01:52:18.854Z,40.78
2022-12-25T01:54:59.012Z,41.50
2022-12-25T01:57:35.287Z,40.58
2022-12-25T02:00:10.354Z,43.73
2022-12-25T02:02:43.245Z,39.27
2022-12-25T02:05:23.420Z,40.95
2022-12-25T02:07:56.502Z,41.05
2022-12-25T02:10:29.225Z,45.00
2022-12-25T02:13:02.480Z,40.45
2022-12-25T02:15:43.104Z,41.58
2022-12-25T02:18:36.914Z,38.85
2022-12-25T02:21:52.966Z,40.23
2022-12-25T02:27:27.391Z,40.70
2022-12-25T02:30:08.490Z,36.15
2022-12-25T02:32:56.458Z,38.83
2022-12-25T02:35:31.301Z,39.90
2022-12-25T02:38:11.658Z,41.55
2022-12-25T02:40:54.090Z,38.30
2022-12-25T02:43:57.076Z,36.25
2022-12-25T02:46:47.113Z,39.45
2022-12-25T02:49:40.261Z,39.48
2022-12-25T02:52:33.226Z,39.35
2022-12-25T02:55:33.245Z,37.40
2022-12-25T02:58:27.776Z,39.48
2022-12-25T03:01:22.503Z,42.25
2022-12-25T03:04:14.565Z,36.75
2022-12-25T03:07:07.161Z,36.80
2022-12-25T03:10:01.411Z,41.33
2022-12-25T03:12:53.057Z,36.13
2022-12-25T03:15:29.852Z,37.20
2022-12-25T03:18:05.385Z,38.65
2022-12-25T03:20:56.814Z,39.50
2022-12-25T03:23:51.499Z,36.23
2022-12-25T03:26:41.632Z,33.90
2022-12-25T03:29:18.780Z,35.45
2022-12-25T03:31:56.769Z,35.65
2022-12-25T03:35:00.449Z,33.40
2022-12-25T03:38:21.613Z,35.10
2022-12-25T03:41:36.655Z,28.40
2022-12-25T03:44:24.061Z,30.75
2022-12-25T03:47:31.459Z,28.27
2022-12-25T03:50:41.412Z,28.12
2022-12-25T03:53:54.596Z,27.52
2022-12-25T03:56:45.552Z,26.45
2022-12-25T03:59:40.977Z,27.20
2022-12-25T04:02:31.543Z,26.62
2022-12-25T04:05:22.253Z,24.52
2022-12-25T04:08:12.445Z,23.73
2022-12-25T04:11:02.632Z,27.00
2022-12-25T04:13:52.784Z,26.52
2022-12-25T04:16:42.943Z,27.37
2022-12-25T04:19:33.213Z,25.62
2022-12-25T04:22:23.400Z,27.42
2022-12-25T04:25:08.951Z,29.80
2022-12-25T04:27:59.517Z,36.68
2022-12-25T04:30:51.041Z,29.72
2022-12-25T04:33:41.324Z,27.15
2022-12-25T04:36:13.764Z,22.98
2022-12-25T04:38:46.344Z,24.37
2022-12-25T04:41:18.733Z,26.37
2022-12-25T04:43:51.151Z,21.05
2022-12-25T04:46:24.356Z,21.17
2022-12-25T04:48:56.942Z,20.85
2022-12-25T04:51:29.354Z,23.20
2022-12-25T04:54:01.797Z,22.58
2022-12-25T04:56:40.081Z,18.70
2022-12-25T04:59:09.502Z,21.82
2022-12-25T05:01:42.482Z,19.42
2022-12-25T05:04:15.160Z,19.37
2022-12-25T05:06:47.498Z,48.87
2022-12-25T05:09:20.090Z,23.30
2022-12-25T05:11:52.774Z,18.67
2022-12-25T05:14:25.632Z,18.23
2022-12-25T05:16:58.223Z,18.48
2022-12-25T05:19:31.902Z,18.15
2022-12-25T05:22:04.442Z,17.48
2022-12-25T05:24:37.075Z,19.65
2022-12-25T05:27:09.411Z,17.92
2022-12-25T05:29:41.953Z,18.35
2022-12-25T05:32:15.217Z,16.02
2022-12-25T05:34:47.681Z,16.40
2022-12-25T05:37:20.567Z,50.33
2022-12-25T05:39:52.889Z,21.95
2022-12-25T05:42:25.266Z,17.23
2022-12-25T05:44:57.841Z,20.00
2022-12-25T05:47:30.240Z,17.62
2022-12-25T05:50:03.461Z,15.48
2022-12-25T05:52:36.280Z,16.60
2022-12-25T05:55:09.477Z,16.00
2022-12-25T05:57:41.777Z,15.93
2022-12-25T06:00:15.176Z,14.07
2022-12-25T06:02:48.246Z,15.48
2022-12-25T06:05:20.996Z,16.32
2022-12-25T06:07:54.672Z,15.88
2022-12-25T06:10:27.514Z,15.30
2022-12-25T06:13:00.978Z,14.18
2022-12-25T06:15:34.816Z,13.98
2022-12-25T06:18:07.989Z,18.42
2022-12-25T06:20:42.344Z,19.12
2022-12-25T06:23:14.776Z,18.82
2022-12-25T06:25:47.328Z,16.57
2022-12-25T06:28:19.851Z,14.18
2022-12-25T06:30:52.461Z,14.63
2022-12-25T06:33:25.140Z,14.47
2022-12-25T06:35:57.559Z,14.80
2022-12-25T06:38:31.593Z,21.68
2022-12-25T06:41:19.916Z,15.15
2022-12-25T06:43:54.128Z,10.65
2022-12-25T06:46:29.851Z,13.45
2022-12-25T06:49:02.499Z,11.60
2022-12-25T06:51:35.230Z,12.33
2022-12-25T06:54:09.641Z,11.55
2022-12-25T06:56:42.267Z,10.18
2022-12-25T06:59:15.111Z,11.48
2022-12-25T07:01:53.957Z,9.55
2022-12-25T07:04:40.384Z,10.95
2022-12-25T07:07:13.547Z,15.30
2022-12-25T07:09:46.119Z,12.70
2022-12-25T07:12:23.829Z,10.53
2022-12-25T07:14:57.068Z,11.43
2022-12-25T07:17:29.522Z,11.78
2022-12-25T07:20:01.926Z,11.45
2022-12-25T07:22:34.686Z,11.38
2022-12-25T07:25:08.157Z,10.15
2022-12-25T07:27:41.410Z,9.80
2022-12-25T07:30:14.953Z,9.13
2022-12-25T07:32:50.268Z,10.28
2022-12-25T07:35:22.266Z,11.12
2022-12-25T07:37:54.880Z,10.65
2022-12-25T07:40:27.466Z,9.55
2022-12-25T07:43:00.162Z,10.55
2022-12-25T07:45:34.180Z,10.03
2022-12-25T07:48:10.631Z,10.80
2022-12-25T07:50:41.204Z,9.95
2022-12-25T07:53:13.698Z,10.68
2022-12-25T07:55:46.100Z,10.68
2022-12-25T07:58:23.128Z,9.53
2022-12-25T08:00:52.866Z,10.48
2022-12-25T08:03:25.670Z,9.98
2022-12-25T08:06:03.367Z,10.35
2022-12-25T08:08:38.397Z,10.72
2022-12-25T08:11:11.214Z,9.10
2022-12-25T08:13:43.608Z,10.50
2022-12-25T08:16:16.492Z,8.28
2022-12-25T08:18:49.141Z,9.05
2022-12-25T08:21:21.612Z,10.10
2022-12-25T08:23:54.255Z,9.80
2022-12-25T08:26:26.600Z,10.30
2022-12-25T08:28:59.185Z,9.48
2022-12-25T08:31:34.035Z,9.80
2022-12-25T08:34:07.224Z,10.13
2022-12-25T08:36:39.811Z,10.15
2022-12-25T08:39:12.322Z,9.68
2022-12-25T08:41:44.762Z,11.57
2022-12-25T08:44:17.292Z,8.18
2022-12-25T08:46:49.606Z,8.68
2022-12-25T08:49:23.442Z,9.13
2022-12-25T08:51:56.181Z,10.13
2022-12-25T08:54:28.668Z,8.90
2022-12-25T08:57:03.014Z,9.30
2022-12-25T08:59:35.476Z,8.68
2022-12-25T09:02:08.232Z,8.40
2022-12-25T09:04:41.711Z,79.37
2022-12-25T09:07:14.324Z,20.95
2022-12-25T09:09:47.133Z,11.88
2022-12-25T09:12:19.747Z,8.35
2022-12-25T09:14:54.059Z,8.35
2022-12-25T09:17:26.456Z,7.90
2022-12-25T09:19:58.953Z,7.85
2022-12-25T09:22:31.834Z,7.40
2022-12-25T09:25:04.322Z,7.67
2022-12-25T09:27:37.480Z,7.62
2022-12-25T09:30:11.178Z,8.73
2022-12-25T09:32:43.673Z,7.30
2022-12-25T09:35:17.770Z,7.28
2022-12-25T09:37:50.077Z,7.83
2022-12-25T09:40:23.222Z,7.30
2022-12-25T09:42:55.719Z,9.55
2022-12-25T09:45:37.463Z,22.25
2022-12-25T09:48:13.481Z,8.73
2022-12-25T09:51:11.274Z,9.98
2022-12-25T09:53:48.731Z,8.70
2022-12-25T09:56:26.352Z,9.15
2022-12-25T09:58:58.809Z,8.10
2022-12-25T10:01:36.275Z,8.93
2022-12-25T10:04:25.542Z,8.55
2022-12-25T10:07:11.437Z,8.10
2022-12-25T10:10:10.033Z,6.92
2022-12-25T10:13:07.866Z,8.03
2022-12-25T10:15:58.476Z,7.17
2022-12-25T10:18:55.662Z,7.62
2022-12-25T10:21:28.306Z,7.58
2022-12-25T10:24:14.025Z,7.62
2022-12-25T10:26:46.990Z,7.00
2022-12-25T10:29:20.618Z,7.17
2022-12-25T10:31:56.860Z,7.85
2022-12-25T10:34:29.300Z,8.10
2022-12-25T10:37:02.509Z,8.18
2022-12-25T10:39:36.077Z,8.15
2022-12-25T10:42:40.618Z,8.85
2022-12-25T10:45:13.085Z,7.17
2022-12-25T10:47:45.814Z,7.22
2022-12-25T10:50:24.733Z,8.48
2022-12-25T10:53:05.856Z,8.78
2022-12-25T10:55:38.870Z,8.10
2022-12-25T10:58:16.090Z,7.12
2022-12-25T11:01:02.433Z,7.37
2022-12-25T11:03:40.376Z,7.33
2022-12-25T11:06:27.721Z,7.97
2022-12-25T11:09:01.641Z,14.80
2022-12-25T11:11:34.146Z,10.23
2022-12-25T11:14:06.455Z,9.43
2022-12-25T11:16:40.427Z,9.73
2022-12-25T11:19:26.950Z,9.15
2022-12-25T11:22:01.356Z,13.78
2022-12-25T11:24:35.197Z,11.48
2022-12-25T11:27:07.922Z,13.22
2022-12-25T11:29:53.946Z,11.00
2022-12-25T11:32:51.391Z,11.60
2022-12-25T11:35:26.846Z,11.57
2022-12-25T11:37:59.159Z,11.38
2022-12-25T11:40:50.335Z,10.45
2022-12-25T11:43:43.359Z,10.18
2022-12-25T11:46:23.223Z,9.65
2022-12-25T11:48:59.206Z,12.10
2022-12-25T11:51:38.127Z,8.68
2022-12-25T11:54:27.286Z,11.83
2022-12-25T11:57:01.242Z,11.65
2022-12-25T11:59:53.553Z,10.72
2022-12-25T12:02:47.747Z,10.32
2022-12-25T12:05:33.808Z,10.15
2022-12-25T12:08:07.324Z,13.32
2022-12-25T12:10:53.521Z,10.40
2022-12-25T12:14:04.203Z,12.23
2022-12-25T12:16:37.028Z,11.05
2022-12-25T12:19:29.658Z,10.80
2022-12-25T12:22:03.737Z,12.80
2022-12-25T12:24:42.953Z,12.05
2022-12-25T12:27:25.291Z,10.18
2022-12-25T12:29:59.487Z,11.43
2022-12-25T12:32:48.003Z,9.63
2022-12-25T12:35:23.722Z,9.88
2022-12-25T12:38:02.614Z,13.70
2022-12-25T12:40:38.671Z,12.20
2022-12-25T12:43:30.976Z,10.85
2022-12-25T12:46:31.263Z,13.65
2022-12-25T12:49:25.946Z,20.15
2022-12-25T12:52:18.015Z,21.42
2022-12-25T12:55:06.494Z,15.30
2022-12-25T12:57:41.739Z,13.60
2022-12-25T13:00:19.983Z,11.30
2022-12-25T13:03:09.877Z,13.10
2022-12-25T13:05:58.449Z,14.10
2022-12-25T13:08:50.825Z,11.18
2022-12-25T13:11:32.507Z,10.98
2022-12-25T13:14:05.934Z,13.03
2022-12-25T13:16:42.954Z,10.25
2022-12-25T13:19:27.519Z,11.73
2022-12-25T13:22:02.497Z,11.35
2022-12-25T13:24:37.915Z,14.60
2022-12-25T13:27:29.560Z,10.53
2022-12-25T13:30:16.186Z,12.23
2022-12-25T13:32:49.462Z,11.08
2022-12-25T13:35:22.405Z,13.65
2022-12-25T13:37:54.920Z,11.73
2022-12-25T13:40:28.983Z,11.93
2022-12-25T13:43:02.238Z,13.65
2022-12-25T13:45:37.741Z,14.43
2022-12-25T13:48:20.983Z,13.75
2022-12-25T13:51:01.819Z,13.83
2022-12-25T13:53:34.442Z,9.35
2022-12-25T13:56:07.131Z,11.22
2022-12-25T13:58:40.571Z,10.82
2022-12-25T14:01:13.029Z,10.80
2022-12-25T14:03:49.334Z,10.45
2022-12-25T14:06:27.865Z,10.18
2022-12-25T14:09:00.490Z,10.80
2022-12-25T14:11:32.958Z,11.28
2022-12-25T14:14:09.325Z,11.20
2022-12-25T14:16:44.286Z,9.08
2022-12-25T14:19:31.464Z,11.08
2022-12-25T14:22:14.306Z,11.12
2022-12-25T14:24:46.815Z,10.32
2022-12-25T14:27:23.617Z,11.30
2022-12-25T14:29:59.939Z,12.00
2022-12-25T14:32:33.072Z,10.85
2022-12-25T14:35:06.269Z,10.25
2022-12-25T14:37:39.468Z,10.08
2022-12-25T14:40:28.377Z,10.30
2022-12-25T14:43:03.414Z,11.28
2022-12-25T14:45:39.743Z,11.70
2022-12-25T14:48:25.541Z,9.18
2022-12-25T14:51:03.083Z,10.95
2022-12-25T14:53:49.709Z,11.68
2022-12-25T14:56:23.168Z,10.90
2022-12-25T14:58:58.669Z,12.98
2022-12-25T15:01:36.603Z,13.08
2022-12-25T15:04:15.207Z,13.90
2022-12-25T15:07:00.032Z,13.62
2022-12-25T15:09:32.411Z,45.80
2022-12-25T15:12:05.529Z,36.00
2022-12-25T15:14:39.652Z,18.57
2022-12-25T15:19:46.051Z,18.37
2022-12-25T15:22:20.214Z,13.55
2022-12-25T15:24:58.757Z,10.82
2022-12-25T15:27:27.023Z,10.30
2022-12-25T15:30:09.822Z,12.40
2022-12-25T15:32:33.845Z,11.73
2022-12-25T15:35:07.222Z,9.90
2022-12-25T15:37:40.151Z,9.60
2022-12-25T15:40:15.216Z,11.48
2022-12-25T15:42:49.179Z,11.50
2022-12-25T15:45:25.665Z,9.73
2022-12-25T15:47:58.922Z,10.03
2022-12-25T15:50:32.894Z,9.70
2022-12-25T15:53:05.598Z,10.15
2022-12-25T15:55:38.288Z,8.58
2022-12-25T15:58:15.312Z,9.40
2022-12-25T16:00:48.174Z,7.97
2022-12-25T16:03:20.679Z,10.18
2022-12-25T16:05:54.854Z,9.55
2022-12-25T16:08:27.325Z,9.60
2022-12-25T16:11:00.118Z,10.48
2022-12-25T16:13:33.492Z,10.43
2022-12-25T16:16:07.213Z,10.58
2022-12-25T16:18:46.733Z,9.95
2022-12-25T16:21:18.686Z,10.13
2022-12-25T16:23:51.091Z,10.55
2022-12-25T16:26:23.630Z,9.00
2022-12-25T16:28:55.988Z,11.28
2022-12-25T16:31:28.439Z,9.90
2022-12-25T16:34:01.726Z,10.30
2022-12-25T16:36:34.241Z,9.08
2022-12-25T16:39:06.806Z,11.43
2022-12-25T16:41:39.440Z,9.78
2022-12-25T16:44:12.072Z,17.95
2022-12-25T16:46:45.257Z,10.05
2022-12-25T16:49:18.015Z,8.60
2022-12-25T16:51:50.477Z,8.48
2022-12-25T16:54:23.001Z,8.43
2022-12-25T16:56:56.568Z,9.50
2022-12-25T16:59:31.416Z,7.92
2022-12-25T17:02:03.893Z,10.43
2022-12-25T17:04:36.635Z,8.75
2022-12-25T17:07:09.532Z,8.53
2022-12-25T17:09:44.618Z,9.75
2022-12-25T17:14:48.796Z,10.00
2022-12-25T17:17:21.104Z,10.03
2022-12-25T17:19:53.592Z,9.90
2022-12-25T17:22:26.179Z,12.25
2022-12-25T17:24:58.704Z,12.78
2022-12-25T17:27:31.318Z,12.10
2022-12-25T17:30:03.935Z,12.95
2022-12-25T17:32:36.541Z,13.05
2022-12-25T17:35:10.024Z,12.37
2022-12-25T17:37:42.433Z,14.40
2022-12-25T17:40:15.837Z,15.20
2022-12-25T17:42:48.568Z,29.15
2022-12-25T17:45:21.153Z,54.25
2022-12-25T17:47:57.707Z,18.05
2022-12-25T17:50:34.567Z,16.32
2022-12-25T17:53:05.521Z,16.17
2022-12-25T17:55:41.668Z,14.28
2022-12-25T17:58:14.184Z,13.28
2022-12-25T18:00:47.010Z,13.78
2022-12-25T18:03:19.722Z,12.07
2022-12-25T18:05:52.426Z,16.27
2022-12-25T18:08:25.425Z,11.05
2022-12-25T18:10:59.891Z,13.53
2022-12-25T18:13:32.724Z,15.93
2022-12-25T18:16:07.137Z,11.53
2022-12-25T18:18:39.841Z,10.72
2022-12-25T18:21:13.054Z,10.40
2022-12-25T18:23:46.521Z,12.50
2022-12-25T18:26:19.456Z,17.47
2022-12-25T18:28:52.443Z,11.60
2022-12-25T18:31:26.986Z,12.85
2022-12-25T18:34:00.049Z,12.10
2022-12-25T18:36:33.562Z,12.68
2022-12-25T18:39:06.087Z,12.65
2022-12-25T18:41:40.862Z,11.68
2022-12-25T18:44:14.584Z,45.75
2022-12-25T18:46:47.716Z,26.30
2022-12-25T18:49:21.002Z,15.58
2022-12-25T18:51:54.121Z,14.47
2022-12-25T18:54:28.140Z,12.60
2022-12-25T18:57:05.435Z,31.80
2022-12-25T18:59:34.966Z,27.13
2022-12-25T19:02:07.574Z,18.42
2022-12-25T19:04:40.103Z,13.53
2022-12-25T19:07:12.880Z,12.60
2022-12-25T19:09:45.333Z,11.55
2022-12-25T19:12:18.027Z,10.88
2022-12-25T19:14:50.732Z,13.08
2022-12-25T19:17:27.994Z,10.65
2022-12-25T19:19:59.150Z,11.33
2022-12-25T19:22:33.233Z,11.63
2022-12-25T19:25:07.463Z,13.10
2022-12-25T19:27:40.110Z,12.80
2022-12-25T19:30:13.689Z,11.03
2022-12-25T19:32:47.510Z,11.40
2022-12-25T19:35:19.790Z,10.68
2022-12-25T19:37:53.188Z,13.05
2022-12-25T19:40:26.534Z,14.47
2022-12-25T19:42:59.061Z,27.57
2022-12-25T19:45:31.527Z,31.35
2022-12-25T19:48:04.874Z,28.75
2022-12-25T19:50:37.751Z,19.50
2022-12-25T19:53:10.475Z,13.88
2022-12-25T19:55:43.323Z,13.58
2022-12-25T19:58:16.053Z,13.20
2022-12-25T20:01:08.103Z,12.20
2022-12-25T20:03:46.179Z,13.20
2022-12-25T20:06:21.452Z,12.82
2022-12-25T20:08:56.949Z,11.28
2022-12-25T20:11:32.000Z,12.78
2022-12-25T20:14:06.689Z,15.43
2022-12-25T20:16:39.612Z,14.78
2022-12-25T20:19:15.123Z,13.05
2022-12-25T20:21:47.453Z,12.78
2022-12-25T20:24:20.826Z,13.70
2022-12-25T20:26:58.811Z,16.55
2022-12-25T20:29:27.690Z,13.95
2022-12-25T20:32:00.554Z,14.43
2022-12-25T20:34:33.491Z,16.23
2022-12-25T20:37:06.132Z,16.60
2022-12-25T20:39:40.468Z,13.70
2022-12-25T20:42:14.224Z,13.88
2022-12-25T20:44:46.782Z,11.97
2022-12-25T20:47:19.271Z,15.88
2022-12-25T20:49:51.702Z,13.28
2022-12-25T20:52:24.173Z,12.13
2022-12-25T20:54:57.049Z,12.65
2022-12-25T20:57:29.885Z,15.43
2022-12-25T21:00:02.418Z,14.93
2022-12-25T21:02:38.160Z,12.90
2022-12-25T21:05:14.791Z,11.15
2022-12-25T21:07:47.788Z,11.38
2022-12-25T21:10:20.315Z,11.08
2022-12-25T21:12:53.466Z,12.95
2022-12-25T21:15:26.069Z,23.45
2022-12-25T21:17:58.418Z,20.32
2022-12-25T21:20:31.038Z,12.28
2022-12-25T21:23:03.564Z,10.72
2022-12-25T21:25:36.985Z,9.78
2022-12-25T21:28:09.325Z,9.85
2022-12-25T21:30:41.902Z,10.85
2022-12-25T21:33:33.135Z,11.35
2022-12-25T21:36:10.167Z,12.35
2022-12-25T21:38:42.539Z,11.25
2022-12-25T21:41:17.631Z,11.40
2022-12-25T21:43:50.129Z,11.95
2022-12-25T21:46:23.577Z,13.93
2022-12-25T21:48:56.050Z,11.35
2022-12-25T21:51:51.016Z,10.25
2022-12-25T21:56:55.476Z,12.47
2022-12-25T21:59:27.878Z,15.60
2022-12-25T22:02:00.830Z,13.03
2022-12-25T22:04:33.517Z,11.18
2022-12-25T22:07:18.292Z,14.55
2022-12-25T22:09:52.258Z,12.25
2022-12-25T22:12:42.712Z,13.20
2022-12-25T22:15:15.471Z,13.45
2022-12-25T22:18:06.065Z,14.00
2022-12-25T22:20:40.098Z,13.18
2022-12-25T22:23:14.535Z,14.05
2022-12-25T22:25:47.210Z,15.53
2022-12-25T22:28:19.621Z,15.20
2022-12-25T22:30:52.982Z,14.33
2022-12-25T22:33:27.229Z,11.93
2022-12-25T22:36:18.431Z,11.83
2022-12-25T22:38:50.912Z,11.97
2022-12-25T22:41:27.017Z,14.33
2022-12-25T22:49:04.622Z,12.98
2022-12-25T22:51:37.018Z,13.28
2022-12-25T22:54:09.738Z,12.37
2022-12-25T22:56:43.237Z,12.85
2022-12-25T22:59:36.648Z,13.03
2022-12-25T23:02:11.209Z,12.35
2022-12-25T23:04:43.695Z,13.13
2022-12-25T23:07:16.012Z,15.72
2022-12-25T23:09:48.530Z,13.75
2022-12-25T23:12:38.807Z,13.13
2022-12-25T23:15:11.775Z,14.25
2022-12-25T23:18:01.893Z,13.20
2022-12-25T23:20:52.765Z,14.15
2022-12-25T23:23:43.233Z,13.68
2022-12-25T23:26:17.061Z,13.22
2022-12-25T23:29:07.054Z,12.15
2022-12-25T23:31:41.011Z,10.85
2022-12-25T23:36:45.609Z,11.60
2022-12-25T23:39:18.066Z,14.07
2022-12-25T23:41:51.802Z,11.63
2022-12-25T23:44:24.663Z,13.45
2022-12-25T23:46:58.392Z,13.15
2022-12-25T23:49:30.784Z,13.35
2022-12-25T23:52:03.243Z,15.05
2022-12-25T23:54:36.397Z,16.67
2022-12-25T23:57:08.940Z,13.88
2022-12-25T23:59:41.540Z,10.80
